Pagrindinis puslapis
METAR-TAF:

METAR-TAF

Oro uostai :

Damamas, Saudo Arabija

platuma: 26-28N, ilguma: 049-47E, Aukštis: 22 m

Dabartinis oras

Ataskaita buvo paskelbta 48 minutes, ne 09:00 UTC
Vėjas 4 kt iš Šiaurės/Šiaurės Vakarų
Temperatūra 21°C
Drėgmė 49%
Slėgis 1018 hPa
Matomumas 10 km arba daugiau
Mažai debesys ne aukštis 4000 ft

METAR: OEDF 210900Z 34004KT 9999 FEW040 21/10 Q1018 NOSIG

Laikas: 12:48 (09:48 UTC)

Prognozė

Ataskaita buvo paskelbta 4 valandos ir 48 minutes, ne 05:00 UTC
Prognozė galioja nuo 21 metu 06 UTC su 22 metu 12 UTC
Vėjas 10 kt iš Šiaurės/Šiaurės Vakarų
Matomumas: 8000 m
Tapsmas
nuo 21 metu 11 UTC su 21 metu 13 UTC
Vėjas 10 kt iš Rytų

TAF: OEDF 210500Z 2106/2212 34010KT 8000 NSC BECMG 2111/2113 09010KT

Orai ataskaitas ir orų prognozės (METAR, TAF).

turimą stotys yra geltonos ir raudonos taškus žemėlapyje.

Perkelti pele per norėdami pamatyti stoties vardą.

Tada spustelėkite, norėdami matyti oro stebėjimo ir prognozės.

Norėdami pakeisti žemėlapį: spustelėkite ant žalios mygtukų su juodo kryžiaus žemyn,; žalią mygtuką su brūkšneliu, jei norite nutolinti; arba žalių rodyklių gretimoms žemėlapius.


METAR-TAF: